Terminal Aerodrome Forecast
Issued by NWS

Home | Current Version | Previous Version | Graphics & Text | Print | Product List | Glossary On
Versions: 1 2 3 4 5 6 7 8 9 10 11 12 13 14 15 16 17 18 19 20 21 22 23 24 25 26 27 28 29 30 31 32 33 34 35 36 37
000
FTUS43 KGRB 202300
TAFRHI
TAF
KRHI 202339Z 2100/2124 28007KT P6SM SCT040 BKN120
     FM210300 36003KT 6SM -SHRA BR SCT035 OVC070
      TEMPO 2103/2105 3SM TSRA BR OVC025CB
     FM210600 01005KT 5SM -RA BR SCT012 OVC020
      TEMPO 2109/2113 3SM RA BKN006 OVC012
     FM211400 35009KT P6SM BKN015
     FM211700 34008KT P6SM BKN025
     FM211900 34006KT P6SM SCT035=

USA.gov is the U.S. government's official web portal to all federal, state and local government web resources and services.